Buckner, MO (64016)

8:32 AM CDT on July 29, 2015 (GMT -0500)
Elsea Smith Road | | Change Station
CLOSE
Current Station
Personal Weather Station
Location: Buckner, MO
Elevation: 892 ft
Nearby Weather Stations

Elev 892 ft 39.16 °N, 94.26 °W | Updated 2 minutes ago

Rain
Rain
71.1 °F
Feels Like 71.1 °F
N
5.0
Wind Variable Wind from NNE
Gusts 10.0 mph

Today
High -- | Low -- °F
--% Chance of Precip.
Yesterday
High -- | Low -- °F
Precip. -- in
6:14 AM 8:31 PM
Waxing Gibbous, 95% visible
Pressure 30.07 in
Visibility 10.0 miles
Clouds Few 8000 ft
Mostly Cloudy 10000 ft
Dew Point 70 °F
Humidity 97%
Rainfall 0.62 in
Snow Depth Not available.
UV 1 out of 12
Pollen 6.20 out of 12
Air Quality Not available.
Flu Activity Not available.
METAR KLXT 291253Z AUTO 00000KT 10SM -RA FEW080 BKN100 22/21 A3010 RMK AO2 RAB39 SLP181 P0002 T02220206

More Conditions Fewer Conditions

Pressure 30.07 in
Visibility 10.0 miles
Clouds Few 8000 ft
Mostly Cloudy 10000 ft
Dew Point 70 °F
Humidity 97%
Rainfall 0.62 in
Snow Depth Not available.
UV 1 out of 12
Pollen 6.20 out of 12
Air Quality Not available.
Flu Activity Not available.
METAR KLXT 291253Z AUTO 00000KT 10SM -RA FEW080 BKN100 22/21 A3010 RMK AO2 RAB39 SLP181 P0002 T02220206

More Conditions Fewer Conditions

10-Day Weather Forecast

×

Almanac

Astronomy

Jul. 29, 2015 Rise Set
Actual Time
Civil Twilight
Nautical Twilight
Astronomical Twilight
Moon
Length of Visible Light
Length of Day
Tomorrow will be .
, % of the Moon is Illuminated

Today's Extremes

State Highs State Lows

Community

WunderPhotos

Upload Photos

1,842,094 photos uploaded!

WunderBlogs® & News

Nearby

Air Quality

  Air Quality AQ Index Pollutant
Not available.

Snow Depth

Station Depth Elevation

Earthquake Activity

City Distance Mag. Time & Date
Minimum magnitude displayed is 2.5.

Coastal Water Temperatures

Place Temperature

Stations

Nearby Weather Stations

Station Location Temp. Windchill Dew Point Humidity Wind Precip. Elev Updated Type